sensor_id;sensor_type;location;lat;lon;timestamp;P1;durP1;ratioP1;P2;durP2;ratioP2
3571;SDS011;7958;53.024;12.970;2022-11-14T00:00:10;37.77;;;19.47;;
3571;SDS011;7958;53.024;12.970;2022-11-14T00:02:37;36.17;;;19.20;;
3571;SDS011;7958;53.024;12.970;2022-11-14T00:05:04;39.53;;;19.70;;
3571;SDS011;7958;53.024;12.970;2022-11-14T00:07:32;39.87;;;19.27;;
3571;SDS011;7958;53.024;12.970;2022-11-14T00:10:00;36.40;;;19.90;;
3571;SDS011;7958;53.024;12.970;2022-11-14T00:12:26;36.57;;;18.90;;
3571;SDS011;7958;53.024;12.970;2022-11-14T00:14:54;39.63;;;17.97;;
3571;SDS011;7958;53.024;12.970;2022-11-14T00:17:20;38.37;;;19.70;;
3571;SDS011;7958;53.024;12.970;2022-11-14T00:19:47;44.80;;;20.37;;
3571;SDS011;7958;53.024;12.970;2022-11-14T00:22:13;35.57;;;19.47;;
3571;SDS011;7958;53.024;12.970;2022-11-14T00:24:39;40.60;;;20.07;;
3571;SDS011;7958;53.024;12.970;2022-11-14T00:27:06;41.97;;;21.40;;
3571;SDS011;7958;53.024;12.970;2022-11-14T00:29:32;39.33;;;20.20;;
3571;SDS011;7958;53.024;12.970;2022-11-14T00:32:00;41.60;;;21.20;;
3571;SDS011;7958;53.024;12.970;2022-11-14T00:34:27;44.13;;;21.47;;
3571;SDS011;7958;53.024;12.970;2022-11-14T00:36:53;41.90;;;21.40;;
3571;SDS011;7958;53.024;12.970;2022-11-14T00:39:20;38.50;;;21.27;;
3571;SDS011;7958;53.024;12.970;2022-11-14T00:41:47;44.90;;;22.47;;
3571;SDS011;7958;53.024;12.970;2022-11-14T00:44:13;46.97;;;22.87;;
3571;SDS011;7958;53.024;12.970;2022-11-14T00:46:39;42.77;;;21.90;;
3571;SDS011;7958;53.024;12.970;2022-11-14T00:49:07;48.00;;;23.00;;
3571;SDS011;7958;53.024;12.970;2022-11-14T00:51:37;54.10;;;23.57;;
3571;SDS011;7958;53.024;12.970;2022-11-14T00:54:06;49.30;;;24.53;;
3571;SDS011;7958;53.024;12.970;2022-11-14T00:56:32;51.80;;;25.07;;
3571;SDS011;7958;53.024;12.970;2022-11-14T00:58:59;48.37;;;24.50;;
3571;SDS011;7958;53.024;12.970;2022-11-14T01:01:25;53.63;;;25.20;;
3571;SDS011;7958;53.024;12.970;2022-11-14T01:03:52;46.17;;;24.27;;
3571;SDS011;7958;53.024;12.970;2022-11-14T01:06:20;53.93;;;26.40;;
3571;SDS011;7958;53.024;12.970;2022-11-14T01:08:48;51.50;;;25.93;;
3571;SDS011;7958;53.024;12.970;2022-11-14T01:11:20;49.90;;;25.87;;
3571;SDS011;7958;53.024;12.970;2022-11-14T01:13:48;55.10;;;25.90;;
3571;SDS011;7958;53.024;12.970;2022-11-14T01:16:14;50.40;;;23.57;;
3571;SDS011;7958;53.024;12.970;2022-11-14T01:18:40;53.90;;;24.70;;
3571;SDS011;7958;53.024;12.970;2022-11-14T01:21:10;52.53;;;25.40;;
3571;SDS011;7958;53.024;12.970;2022-11-14T01:23:42;55.30;;;25.93;;
3571;SDS011;7958;53.024;12.970;2022-11-14T01:26:10;63.53;;;26.03;;
3571;SDS011;7958;53.024;12.970;2022-11-14T01:28:38;53.63;;;26.53;;
3571;SDS011;7958;53.024;12.970;2022-11-14T01:31:09;54.40;;;27.23;;
3571;SDS011;7958;53.024;12.970;2022-11-14T01:33:36;63.93;;;28.20;;
3571;SDS011;7958;53.024;12.970;2022-11-14T01:36:05;54.50;;;25.50;;
3571;SDS011;7958;53.024;12.970;2022-11-14T01:38:35;53.57;;;26.60;;
3571;SDS011;7958;53.024;12.970;2022-11-14T01:41:04;54.73;;;28.27;;
3571;SDS011;7958;53.024;12.970;2022-11-14T01:43:32;48.00;;;26.30;;
3571;SDS011;7958;53.024;12.970;2022-11-14T01:46:00;61.70;;;27.80;;
3571;SDS011;7958;53.024;12.970;2022-11-14T01:48:29;63.37;;;28.87;;
3571;SDS011;7958;53.024;12.970;2022-11-14T01:51:00;57.10;;;27.67;;
3571;SDS011;7958;53.024;12.970;2022-11-14T01:53:30;59.50;;;28.00;;
3571;SDS011;7958;53.024;12.970;2022-11-14T01:55:57;60.90;;;28.30;;
3571;SDS011;7958;53.024;12.970;2022-11-14T01:58:29;56.77;;;28.27;;
3571;SDS011;7958;53.024;12.970;2022-11-14T02:00:56;53.03;;;26.20;;
3571;SDS011;7958;53.024;12.970;2022-11-14T02:03:23;56.97;;;28.40;;
3571;SDS011;7958;53.024;12.970;2022-11-14T02:05:50;59.50;;;27.43;;
3571;SDS011;7958;53.024;12.970;2022-11-14T02:08:17;65.33;;;29.37;;
3571;SDS011;7958;53.024;12.970;2022-11-14T02:10:46;56.37;;;29.17;;
3571;SDS011;7958;53.024;12.970;2022-11-14T02:13:12;67.70;;;31.03;;
3571;SDS011;7958;53.024;12.970;2022-11-14T02:15:40;61.80;;;27.77;;
3571;SDS011;7958;53.024;12.970;2022-11-14T02:18:07;61.73;;;28.57;;
3571;SDS011;7958;53.024;12.970;2022-11-14T02:20:36;58.03;;;27.80;;
3571;SDS011;7958;53.024;12.970;2022-11-14T02:23:07;60.63;;;30.40;;
3571;SDS011;7958;53.024;12.970;2022-11-14T02:25:34;62.07;;;26.20;;
3571;SDS011;7958;53.024;12.970;2022-11-14T02:28:03;60.63;;;29.47;;
3571;SDS011;7958;53.024;12.970;2022-11-14T02:30:30;64.77;;;31.47;;
3571;SDS011;7958;53.024;12.970;2022-11-14T02:32:57;67.67;;;30.90;;
3571;SDS011;7958;53.024;12.970;2022-11-14T02:35:23;58.17;;;28.63;;
3571;SDS011;7958;53.024;12.970;2022-11-14T02:37:51;59.60;;;28.83;;
3571;SDS011;7958;53.024;12.970;2022-11-14T02:40:17;60.80;;;30.43;;
3571;SDS011;7958;53.024;12.970;2022-11-14T02:42:46;67.50;;;30.10;;
3571;SDS011;7958;53.024;12.970;2022-11-14T02:45:13;57.60;;;28.60;;
3571;SDS011;7958;53.024;12.970;2022-11-14T02:47:39;59.60;;;27.90;;
3571;SDS011;7958;53.024;12.970;2022-11-14T02:50:06;66.90;;;29.97;;
3571;SDS011;7958;53.024;12.970;2022-11-14T02:52:35;62.83;;;29.00;;
3571;SDS011;7958;53.024;12.970;2022-11-14T02:55:03;62.40;;;29.30;;
3571;SDS011;7958;53.024;12.970;2022-11-14T02:57:30;70.40;;;30.47;;
3571;SDS011;7958;53.024;12.970;2022-11-14T02:59:57;59.67;;;29.97;;
3571;SDS011;7958;53.024;12.970;2022-11-14T03:02:24;62.10;;;30.50;;
3571;SDS011;7958;53.024;12.970;2022-11-14T03:04:50;68.10;;;29.50;;
3571;SDS011;7958;53.024;12.970;2022-11-14T03:07:16;65.10;;;29.50;;
3571;SDS011;7958;53.024;12.970;2022-11-14T03:09:43;66.27;;;29.40;;
3571;SDS011;7958;53.024;12.970;2022-11-14T03:12:10;61.70;;;28.70;;
3571;SDS011;7958;53.024;12.970;2022-11-14T03:17:50;60.10;;;26.10;;
3571;SDS011;7958;53.024;12.970;2022-11-14T03:20:19;57.57;;;27.47;;
3571;SDS011;7958;53.024;12.970;2022-11-14T03:22:45;56.80;;;27.03;;
3571;SDS011;7958;53.024;12.970;2022-11-14T03:25:12;56.33;;;27.00;;
3571;SDS011;7958;53.024;12.970;2022-11-14T03:27:40;57.80;;;28.00;;
3571;SDS011;7958;53.024;12.970;2022-11-14T03:30:09;57.73;;;26.13;;
3571;SDS011;7958;53.024;12.970;2022-11-14T03:32:36;58.17;;;27.10;;
3571;SDS011;7958;53.024;12.970;2022-11-14T03:35:02;64.90;;;28.47;;
3571;SDS011;7958;53.024;12.970;2022-11-14T03:37:29;69.30;;;28.07;;
3571;SDS011;7958;53.024;12.970;2022-11-14T03:39:56;67.00;;;28.40;;
3571;SDS011;7958;53.024;12.970;2022-11-14T03:42:23;63.80;;;29.07;;
3571;SDS011;7958;53.024;12.970;2022-11-14T03:44:51;68.77;;;28.63;;
3571;SDS011;7958;53.024;12.970;2022-11-14T03:47:17;67.23;;;28.87;;
3571;SDS011;7958;53.024;12.970;2022-11-14T03:49:44;78.30;;;30.43;;
3571;SDS011;7958;53.024;12.970;2022-11-14T03:52:10;71.50;;;28.73;;
3571;SDS011;7958;53.024;12.970;2022-11-14T03:54:37;80.27;;;30.53;;
3571;SDS011;7958;53.024;12.970;2022-11-14T03:57:03;76.73;;;30.57;;
3571;SDS011;7958;53.024;12.970;2022-11-14T03:59:31;77.27;;;32.20;;
3571;SDS011;7958;53.024;12.970;2022-11-14T04:01:59;69.40;;;30.33;;
3571;SDS011;7958;53.024;12.970;2022-11-14T04:04:25;80.07;;;31.13;;
3571;SDS011;7958;53.024;12.970;2022-11-14T04:06:52;74.40;;;28.77;;
3571;SDS011;7958;53.024;12.970;2022-11-14T04:09:18;70.83;;;29.37;;
3571;SDS011;7958;53.024;12.970;2022-11-14T04:11:45;74.90;;;30.03;;
3571;SDS011;7958;53.024;12.970;2022-11-14T04:14:12;78.63;;;30.80;;
3571;SDS011;7958;53.024;12.970;2022-11-14T04:16:38;76.93;;;30.90;;
3571;SDS011;7958;53.024;12.970;2022-11-14T04:19:06;76.00;;;29.70;;
3571;SDS011;7958;53.024;12.970;2022-11-14T04:21:33;75.37;;;29.73;;
3571;SDS011;7958;53.024;12.970;2022-11-14T04:24:02;77.20;;;29.37;;
3571;SDS011;7958;53.024;12.970;2022-11-14T04:26:28;64.00;;;29.17;;
3571;SDS011;7958;53.024;12.970;2022-11-14T04:28:55;74.40;;;29.87;;
3571;SDS011;7958;53.024;12.970;2022-11-14T04:31:21;71.27;;;30.23;;
3571;SDS011;7958;53.024;12.970;2022-11-14T04:33:47;71.63;;;29.90;;
3571;SDS011;7958;53.024;12.970;2022-11-14T04:36:15;74.83;;;29.90;;
3571;SDS011;7958;53.024;12.970;2022-11-14T04:38:42;85.40;;;31.50;;
3571;SDS011;7958;53.024;12.970;2022-11-14T04:41:08;71.90;;;29.03;;
3571;SDS011;7958;53.024;12.970;2022-11-14T04:43:35;79.83;;;28.40;;
3571;SDS011;7958;53.024;12.970;2022-11-14T04:46:01;71.43;;;30.17;;
3571;SDS011;7958;53.024;12.970;2022-11-14T04:48:28;73.67;;;30.60;;
3571;SDS011;7958;53.024;12.970;2022-11-14T04:50:54;66.17;;;27.20;;
3571;SDS011;7958;53.024;12.970;2022-11-14T04:53:22;74.33;;;29.63;;
3571;SDS011;7958;53.024;12.970;2022-11-14T04:55:48;71.70;;;29.87;;
3571;SDS011;7958;53.024;12.970;2022-11-14T04:58:15;77.40;;;31.70;;
3571;SDS011;7958;53.024;12.970;2022-11-14T05:00:41;83.70;;;29.20;;
3571;SDS011;7958;53.024;12.970;2022-11-14T05:03:08;67.93;;;29.67;;
3571;SDS011;7958;53.024;12.970;2022-11-14T05:05:34;65.17;;;29.03;;
3571;SDS011;7958;53.024;12.970;2022-11-14T05:08:02;78.00;;;29.10;;
3571;SDS011;7958;53.024;12.970;2022-11-14T05:10:34;77.20;;;30.77;;
3571;SDS011;7958;53.024;12.970;2022-11-14T05:13:01;65.63;;;30.30;;
3571;SDS011;7958;53.024;12.970;2022-11-14T05:15:28;75.10;;;31.17;;
3571;SDS011;7958;53.024;12.970;2022-11-14T05:17:56;77.00;;;30.60;;
3571;SDS011;7958;53.024;12.970;2022-11-14T05:20:23;72.87;;;30.67;;
3571;SDS011;7958;53.024;12.970;2022-11-14T05:22:51;77.80;;;30.40;;
3571;SDS011;7958;53.024;12.970;2022-11-14T05:25:22;80.10;;;31.40;;
3571;SDS011;7958;53.024;12.970;2022-11-14T05:27:50;77.77;;;30.37;;
3571;SDS011;7958;53.024;12.970;2022-11-14T05:30:16;75.30;;;31.07;;
3571;SDS011;7958;53.024;12.970;2022-11-14T05:32:42;76.10;;;31.83;;
3571;SDS011;7958;53.024;12.970;2022-11-14T05:35:09;73.60;;;29.87;;
3571;SDS011;7958;53.024;12.970;2022-11-14T05:37:39;68.63;;;28.50;;
3571;SDS011;7958;53.024;12.970;2022-11-14T05:40:05;68.03;;;29.20;;
3571;SDS011;7958;53.024;12.970;2022-11-14T05:42:32;78.03;;;30.20;;
3571;SDS011;7958;53.024;12.970;2022-11-14T05:45:00;81.20;;;31.37;;
3571;SDS011;7958;53.024;12.970;2022-11-14T05:47:26;68.50;;;28.50;;
3571;SDS011;7958;53.024;12.970;2022-11-14T05:49:55;75.57;;;30.77;;
3571;SDS011;7958;53.024;12.970;2022-11-14T05:52:22;74.10;;;29.67;;
3571;SDS011;7958;53.024;12.970;2022-11-14T05:54:48;72.90;;;29.77;;
3571;SDS011;7958;53.024;12.970;2022-11-14T05:57:14;70.37;;;31.07;;
3571;SDS011;7958;53.024;12.970;2022-11-14T05:59:41;74.87;;;29.40;;
3571;SDS011;7958;53.024;12.970;2022-11-14T06:02:09;83.93;;;30.33;;
3571;SDS011;7958;53.024;12.970;2022-11-14T06:04:41;76.87;;;30.27;;
3571;SDS011;7958;53.024;12.970;2022-11-14T06:07:07;81.33;;;30.90;;
3571;SDS011;7958;53.024;12.970;2022-11-14T06:09:34;82.00;;;32.00;;
3571;SDS011;7958;53.024;12.970;2022-11-14T06:12:01;87.70;;;31.57;;
3571;SDS011;7958;53.024;12.970;2022-11-14T06:14:30;83.37;;;29.87;;
3571;SDS011;7958;53.024;12.970;2022-11-14T06:16:56;87.10;;;31.93;;
3571;SDS011;7958;53.024;12.970;2022-11-14T06:19:24;83.60;;;30.83;;
3571;SDS011;7958;53.024;12.970;2022-11-14T06:21:50;82.93;;;32.00;;
3571;SDS011;7958;53.024;12.970;2022-11-14T06:24:16;78.70;;;30.50;;
3571;SDS011;7958;53.024;12.970;2022-11-14T06:26:48;76.40;;;29.37;;
3571;SDS011;7958;53.024;12.970;2022-11-14T06:29:14;80.20;;;30.90;;
3571;SDS011;7958;53.024;12.970;2022-11-14T06:31:41;84.83;;;31.83;;
3571;SDS011;7958;53.024;12.970;2022-11-14T06:34:09;82.23;;;31.50;;
3571;SDS011;7958;53.024;12.970;2022-11-14T06:36:46;85.37;;;30.90;;
3571;SDS011;7958;53.024;12.970;2022-11-14T06:39:13;91.83;;;31.80;;
3571;SDS011;7958;53.024;12.970;2022-11-14T06:41:39;82.47;;;30.67;;
3571;SDS011;7958;53.024;12.970;2022-11-14T06:44:06;82.03;;;30.67;;
3571;SDS011;7958;53.024;12.970;2022-11-14T06:46:33;88.50;;;30.83;;
3571;SDS011;7958;53.024;12.970;2022-11-14T06:48:59;76.87;;;30.07;;
3571;SDS011;7958;53.024;12.970;2022-11-14T06:51:26;85.53;;;31.07;;
3571;SDS011;7958;53.024;12.970;2022-11-14T06:53:56;84.83;;;29.70;;
3571;SDS011;7958;53.024;12.970;2022-11-14T06:56:23;95.07;;;30.93;;
3571;SDS011;7958;53.024;12.970;2022-11-14T06:58:51;76.30;;;29.33;;
3571;SDS011;7958;53.024;12.970;2022-11-14T07:01:20;75.80;;;30.00;;
3571;SDS011;7958;53.024;12.970;2022-11-14T07:03:48;83.47;;;29.57;;
3571;SDS011;7958;53.024;12.970;2022-11-14T07:06:16;78.20;;;29.10;;
3571;SDS011;7958;53.024;12.970;2022-11-14T07:08:43;78.00;;;30.20;;
3571;SDS011;7958;53.024;12.970;2022-11-14T07:11:12;78.40;;;29.60;;
3571;SDS011;7958;53.024;12.970;2022-11-14T07:13:46;78.00;;;31.30;;
3571;SDS011;7958;53.024;12.970;2022-11-14T07:16:13;76.87;;;29.50;;
3571;SDS011;7958;53.024;12.970;2022-11-14T07:18:39;84.03;;;30.60;;
3571;SDS011;7958;53.024;12.970;2022-11-14T07:21:06;77.33;;;29.37;;
3571;SDS011;7958;53.024;12.970;2022-11-14T07:23:33;86.30;;;30.10;;
3571;SDS011;7958;53.024;12.970;2022-11-14T07:26:00;73.37;;;29.00;;
3571;SDS011;7958;53.024;12.970;2022-11-14T07:28:29;67.77;;;27.10;;
3571;SDS011;7958;53.024;12.970;2022-11-14T07:30:56;81.57;;;30.00;;
3571;SDS011;7958;53.024;12.970;2022-11-14T07:33:22;73.57;;;28.80;;
3571;SDS011;7958;53.024;12.970;2022-11-14T07:35:49;79.03;;;29.27;;
3571;SDS011;7958;53.024;12.970;2022-11-14T07:38:19;79.17;;;29.93;;
3571;SDS011;7958;53.024;12.970;2022-11-14T07:40:51;78.93;;;29.23;;
3571;SDS011;7958;53.024;12.970;2022-11-14T07:43:18;75.17;;;28.97;;
3571;SDS011;7958;53.024;12.970;2022-11-14T07:45:46;69.30;;;26.37;;
3571;SDS011;7958;53.024;12.970;2022-11-14T07:48:12;67.93;;;28.03;;
3571;SDS011;7958;53.024;12.970;2022-11-14T07:50:38;72.30;;;28.10;;
3571;SDS011;7958;53.024;12.970;2022-11-14T07:53:05;78.60;;;29.60;;
3571;SDS011;7958;53.024;12.970;2022-11-14T07:55:32;75.47;;;29.70;;
3571;SDS011;7958;53.024;12.970;2022-11-14T07:58:00;65.70;;;28.40;;
3571;SDS011;7958;53.024;12.970;2022-11-14T08:00:27;71.80;;;26.07;;
3571;SDS011;7958;53.024;12.970;2022-11-14T08:02:55;71.37;;;26.93;;
3571;SDS011;7958;53.024;12.970;2022-11-14T08:05:21;66.83;;;27.73;;
3571;SDS011;7958;53.024;12.970;2022-11-14T08:07:49;75.87;;;28.87;;
3571;SDS011;7958;53.024;12.970;2022-11-14T08:10:15;68.63;;;27.13;;
3571;SDS011;7958;53.024;12.970;2022-11-14T08:12:42;65.77;;;26.53;;
3571;SDS011;7958;53.024;12.970;2022-11-14T08:15:09;76.27;;;29.13;;
3571;SDS011;7958;53.024;12.970;2022-11-14T08:17:37;64.13;;;27.07;;
3571;SDS011;7958;53.024;12.970;2022-11-14T08:20:07;68.30;;;28.10;;
3571;SDS011;7958;53.024;12.970;2022-11-14T08:22:34;58.77;;;25.90;;
3571;SDS011;7958;53.024;12.970;2022-11-14T08:25:00;71.93;;;27.83;;
3571;SDS011;7958;53.024;12.970;2022-11-14T08:27:27;61.33;;;27.43;;
3571;SDS011;7958;53.024;12.970;2022-11-14T08:29:53;69.77;;;27.07;;
3571;SDS011;7958;53.024;12.970;2022-11-14T08:32:19;67.37;;;26.87;;
3571;SDS011;7958;53.024;12.970;2022-11-14T08:34:46;69.43;;;25.30;;
3571;SDS011;7958;53.024;12.970;2022-11-14T08:37:14;56.40;;;26.27;;
3571;SDS011;7958;53.024;12.970;2022-11-14T08:39:40;51.87;;;24.63;;
3571;SDS011;7958;53.024;12.970;2022-11-14T08:42:07;62.83;;;28.13;;
3571;SDS011;7958;53.024;12.970;2022-11-14T08:44:33;61.30;;;24.80;;
3571;SDS011;7958;53.024;12.970;2022-11-14T08:47:00;61.10;;;26.30;;
3571;SDS011;7958;53.024;12.970;2022-11-14T08:49:27;60.03;;;25.47;;
3571;SDS011;7958;53.024;12.970;2022-11-14T08:51:54;61.47;;;26.90;;
3571;SDS011;7958;53.024;12.970;2022-11-14T08:54:22;56.50;;;26.23;;
3571;SDS011;7958;53.024;12.970;2022-11-14T08:56:48;53.53;;;24.33;;
3571;SDS011;7958;53.024;12.970;2022-11-14T08:59:15;59.27;;;26.97;;
3571;SDS011;7958;53.024;12.970;2022-11-14T09:01:47;56.53;;;26.77;;
3571;SDS011;7958;53.024;12.970;2022-11-14T09:04:14;57.23;;;26.67;;
3571;SDS011;7958;53.024;12.970;2022-11-14T09:06:40;52.80;;;24.33;;
3571;SDS011;7958;53.024;12.970;2022-11-14T09:09:07;53.03;;;23.63;;
3571;SDS011;7958;53.024;12.970;2022-11-14T09:11:35;47.40;;;24.07;;
3571;SDS011;7958;53.024;12.970;2022-11-14T09:14:01;46.53;;;23.03;;
3571;SDS011;7958;53.024;12.970;2022-11-14T09:16:28;54.83;;;25.70;;
3571;SDS011;7958;53.024;12.970;2022-11-14T09:18:54;50.83;;;25.23;;
3571;SDS011;7958;53.024;12.970;2022-11-14T09:21:20;48.10;;;23.40;;
3571;SDS011;7958;53.024;12.970;2022-11-14T09:23:47;51.23;;;23.23;;
3571;SDS011;7958;53.024;12.970;2022-11-14T09:26:13;49.90;;;23.80;;
3571;SDS011;7958;53.024;12.970;2022-11-14T09:28:41;50.90;;;23.67;;
3571;SDS011;7958;53.024;12.970;2022-11-14T09:31:09;54.57;;;25.77;;
3571;SDS011;7958;53.024;12.970;2022-11-14T09:33:37;52.07;;;25.57;;
3571;SDS011;7958;53.024;12.970;2022-11-14T09:36:04;50.50;;;24.07;;
3571;SDS011;7958;53.024;12.970;2022-11-14T09:38:32;47.80;;;24.10;;
3571;SDS011;7958;53.024;12.970;2022-11-14T09:41:01;55.17;;;24.47;;
3571;SDS011;7958;53.024;12.970;2022-11-14T09:43:35;44.33;;;22.80;;
3571;SDS011;7958;53.024;12.970;2022-11-14T09:46:15;47.83;;;23.73;;
3571;SDS011;7958;53.024;12.970;2022-11-14T09:48:44;47.37;;;23.27;;
3571;SDS011;7958;53.024;12.970;2022-11-14T09:51:13;47.87;;;23.20;;
3571;SDS011;7958;53.024;12.970;2022-11-14T09:53:41;46.50;;;22.97;;
3571;SDS011;7958;53.024;12.970;2022-11-14T09:56:12;44.23;;;23.20;;
3571;SDS011;7958;53.024;12.970;2022-11-14T09:58:40;44.23;;;22.80;;
3571;SDS011;7958;53.024;12.970;2022-11-14T10:01:09;44.50;;;23.83;;
3571;SDS011;7958;53.024;12.970;2022-11-14T10:03:43;39.23;;;21.53;;
3571;SDS011;7958;53.024;12.970;2022-11-14T10:06:19;41.97;;;22.70;;
3571;SDS011;7958;53.024;12.970;2022-11-14T10:09:00;46.23;;;23.20;;
3571;SDS011;7958;53.024;12.970;2022-11-14T10:11:38;42.80;;;22.47;;
3571;SDS011;7958;53.024;12.970;2022-11-14T10:14:18;36.47;;;21.13;;
3571;SDS011;7958;53.024;12.970;2022-11-14T10:16:56;42.67;;;21.27;;
3571;SDS011;7958;53.024;12.970;2022-11-14T10:19:30;41.87;;;21.90;;
3571;SDS011;7958;53.024;12.970;2022-11-14T10:22:03;42.07;;;22.93;;
3571;SDS011;7958;53.024;12.970;2022-11-14T10:24:49;39.33;;;22.63;;
3571;SDS011;7958;53.024;12.970;2022-11-14T10:27:24;37.37;;;21.90;;
3571;SDS011;7958;53.024;12.970;2022-11-14T10:32:42;38.67;;;21.13;;
3571;SDS011;7958;53.024;12.970;2022-11-14T10:35:16;46.83;;;25.00;;
3571;SDS011;7958;53.024;12.970;2022-11-14T10:37:45;45.40;;;24.60;;
3571;SDS011;7958;53.024;12.970;2022-11-14T10:40:20;43.17;;;22.07;;
3571;SDS011;7958;53.024;12.970;2022-11-14T10:42:49;44.97;;;22.30;;
3571;SDS011;7958;53.024;12.970;2022-11-14T10:45:21;41.13;;;21.37;;
3571;SDS011;7958;53.024;12.970;2022-11-14T10:47:52;44.43;;;23.00;;
3571;SDS011;7958;53.024;12.970;2022-11-14T10:50:21;39.70;;;21.37;;
3571;SDS011;7958;53.024;12.970;2022-11-14T10:52:51;43.83;;;22.10;;
3571;SDS011;7958;53.024;12.970;2022-11-14T10:55:20;42.17;;;24.10;;
3571;SDS011;7958;53.024;12.970;2022-11-14T10:57:48;41.37;;;23.70;;
3571;SDS011;7958;53.024;12.970;2022-11-14T11:00:15;38.87;;;21.17;;
3571;SDS011;7958;53.024;12.970;2022-11-14T11:02:47;33.80;;;19.90;;
3571;SDS011;7958;53.024;12.970;2022-11-14T11:05:18;39.47;;;20.90;;
3571;SDS011;7958;53.024;12.970;2022-11-14T11:07:47;43.90;;;22.60;;
3571;SDS011;7958;53.024;12.970;2022-11-14T11:10:32;40.50;;;21.57;;
3571;SDS011;7958;53.024;12.970;2022-11-14T11:13:28;41.30;;;21.33;;
3571;SDS011;7958;53.024;12.970;2022-11-14T11:15:57;39.40;;;20.20;;
3571;SDS011;7958;53.024;12.970;2022-11-14T11:18:26;38.50;;;21.37;;
3571;SDS011;7958;53.024;12.970;2022-11-14T11:21:03;40.33;;;21.90;;
3571;SDS011;7958;53.024;12.970;2022-11-14T11:23:30;39.10;;;21.70;;
3571;SDS011;7958;53.024;12.970;2022-11-14T11:25:57;41.60;;;21.80;;
3571;SDS011;7958;53.024;12.970;2022-11-14T11:28:29;37.63;;;19.97;;
3571;SDS011;7958;53.024;12.970;2022-11-14T11:30:57;34.20;;;20.57;;
3571;SDS011;7958;53.024;12.970;2022-11-14T11:33:25;41.43;;;22.03;;
3571;SDS011;7958;53.024;12.970;2022-11-14T11:35:53;36.00;;;21.73;;
3571;SDS011;7958;53.024;12.970;2022-11-14T11:38:24;39.40;;;20.97;;
3571;SDS011;7958;53.024;12.970;2022-11-14T11:40:53;42.80;;;22.40;;
3571;SDS011;7958;53.024;12.970;2022-11-14T11:43:25;39.63;;;20.20;;
3571;SDS011;7958;53.024;12.970;2022-11-14T11:45:56;39.40;;;21.23;;
3571;SDS011;7958;53.024;12.970;2022-11-14T11:48:26;37.47;;;20.97;;
3571;SDS011;7958;53.024;12.970;2022-11-14T11:50:56;44.90;;;21.30;;
3571;SDS011;7958;53.024;12.970;2022-11-14T11:53:25;42.77;;;21.73;;
3571;SDS011;7958;53.024;12.970;2022-11-14T11:55:55;34.20;;;19.50;;
3571;SDS011;7958;53.024;12.970;2022-11-14T11:58:25;39.83;;;20.10;;
3571;SDS011;7958;53.024;12.970;2022-11-14T12:00:53;35.50;;;19.80;;
3571;SDS011;7958;53.024;12.970;2022-11-14T12:03:20;34.30;;;19.73;;
3571;SDS011;7958;53.024;12.970;2022-11-14T12:05:49;34.70;;;20.50;;
3571;SDS011;7958;53.024;12.970;2022-11-14T12:08:20;37.93;;;20.10;;
3571;SDS011;7958;53.024;12.970;2022-11-14T12:10:54;35.50;;;19.93;;
3571;SDS011;7958;53.024;12.970;2022-11-14T12:13:30;36.40;;;19.30;;
3571;SDS011;7958;53.024;12.970;2022-11-14T12:16:10;35.10;;;19.87;;
3571;SDS011;7958;53.024;12.970;2022-11-14T12:18:48;36.97;;;20.47;;
3571;SDS011;7958;53.024;12.970;2022-11-14T12:21:24;32.23;;;19.40;;
3571;SDS011;7958;53.024;12.970;2022-11-14T12:27:02;32.43;;;19.00;;
3571;SDS011;7958;53.024;12.970;2022-11-14T12:32:27;32.90;;;18.70;;
3571;SDS011;7958;53.024;12.970;2022-11-14T12:34:56;31.20;;;19.00;;
3571;SDS011;7958;53.024;12.970;2022-11-14T12:37:26;35.10;;;19.83;;
3571;SDS011;7958;53.024;12.970;2022-11-14T12:39:58;35.17;;;20.20;;
3571;SDS011;7958;53.024;12.970;2022-11-14T12:42:26;35.90;;;18.93;;
3571;SDS011;7958;53.024;12.970;2022-11-14T12:44:52;35.43;;;20.27;;
3571;SDS011;7958;53.024;12.970;2022-11-14T12:47:19;36.03;;;20.40;;
3571;SDS011;7958;53.024;12.970;2022-11-14T12:49:57;38.20;;;19.77;;
3571;SDS011;7958;53.024;12.970;2022-11-14T12:52:40;34.03;;;18.60;;
3571;SDS011;7958;53.024;12.970;2022-11-14T12:55:18;30.63;;;19.23;;
3571;SDS011;7958;53.024;12.970;2022-11-14T12:58:31;35.40;;;20.57;;
3571;SDS011;7958;53.024;12.970;2022-11-14T13:01:15;33.37;;;19.60;;
3571;SDS011;7958;53.024;12.970;2022-11-14T13:03:53;33.87;;;17.67;;
3571;SDS011;7958;53.024;12.970;2022-11-14T13:06:28;31.33;;;18.90;;
3571;SDS011;7958;53.024;12.970;2022-11-14T13:11:59;32.50;;;18.73;;
3571;SDS011;7958;53.024;12.970;2022-11-14T13:15:07;36.97;;;19.60;;
3571;SDS011;7958;53.024;12.970;2022-11-14T13:18:02;36.63;;;19.40;;
3571;SDS011;7958;53.024;12.970;2022-11-14T13:20:59;33.37;;;19.20;;
3571;SDS011;7958;53.024;12.970;2022-11-14T13:23:56;35.07;;;19.57;;
3571;SDS011;7958;53.024;12.970;2022-11-14T13:26:36;29.63;;;18.70;;
3571;SDS011;7958;53.024;12.970;2022-11-14T13:29:04;34.90;;;20.60;;
3571;SDS011;7958;53.024;12.970;2022-11-14T13:31:47;29.30;;;18.10;;
3571;SDS011;7958;53.024;12.970;2022-11-14T13:34:29;43.27;;;21.57;;
3571;SDS011;7958;53.024;12.970;2022-11-14T13:37:00;34.47;;;20.67;;
3571;SDS011;7958;53.024;12.970;2022-11-14T13:39:34;34.17;;;19.23;;
3571;SDS011;7958;53.024;12.970;2022-11-14T13:42:10;31.23;;;18.80;;
3571;SDS011;7958;53.024;12.970;2022-11-14T13:45:01;35.53;;;19.70;;
3571;SDS011;7958;53.024;12.970;2022-11-14T13:47:41;37.07;;;18.50;;
3571;SDS011;7958;53.024;12.970;2022-11-14T13:50:36;38.60;;;20.17;;
3571;SDS011;7958;53.024;12.970;2022-11-14T13:53:10;35.97;;;20.30;;
3571;SDS011;7958;53.024;12.970;2022-11-14T13:55:43;32.37;;;18.33;;
3571;SDS011;7958;53.024;12.970;2022-11-14T13:58:19;35.77;;;20.40;;
3571;SDS011;7958;53.024;12.970;2022-11-14T14:01:00;37.23;;;19.87;;
3571;SDS011;7958;53.024;12.970;2022-11-14T14:03:35;33.37;;;19.90;;
3571;SDS011;7958;53.024;12.970;2022-11-14T14:06:17;36.40;;;19.80;;
3571;SDS011;7958;53.024;12.970;2022-11-14T14:09:02;35.67;;;20.43;;
3571;SDS011;7958;53.024;12.970;2022-11-14T14:11:43;37.70;;;20.40;;
3571;SDS011;7958;53.024;12.970;2022-11-14T14:17:14;35.73;;;19.60;;
3571;SDS011;7958;53.024;12.970;2022-11-14T14:19:46;34.30;;;18.53;;
3571;SDS011;7958;53.024;12.970;2022-11-14T14:22:19;35.87;;;19.43;;
3571;SDS011;7958;53.024;12.970;2022-11-14T14:24:52;34.07;;;18.33;;
3571;SDS011;7958;53.024;12.970;2022-11-14T14:27:23;34.87;;;19.30;;
3571;SDS011;7958;53.024;12.970;2022-11-14T14:29:54;35.70;;;19.53;;
3571;SDS011;7958;53.024;12.970;2022-11-14T14:32:27;35.27;;;19.00;;
3571;SDS011;7958;53.024;12.970;2022-11-14T14:34:54;35.70;;;19.67;;
3571;SDS011;7958;53.024;12.970;2022-11-14T14:37:23;35.30;;;18.53;;
3571;SDS011;7958;53.024;12.970;2022-11-14T14:39:57;34.70;;;20.27;;
3571;SDS011;7958;53.024;12.970;2022-11-14T14:42:24;37.83;;;20.80;;
3571;SDS011;7958;53.024;12.970;2022-11-14T14:44:51;33.57;;;19.40;;
3571;SDS011;7958;53.024;12.970;2022-11-14T14:47:26;37.07;;;19.90;;
3571;SDS011;7958;53.024;12.970;2022-11-14T14:49:59;38.30;;;20.10;;
3571;SDS011;7958;53.024;12.970;2022-11-14T14:52:27;41.83;;;20.53;;
3571;SDS011;7958;53.024;12.970;2022-11-14T14:54:55;41.87;;;20.43;;
3571;SDS011;7958;53.024;12.970;2022-11-14T14:57:22;39.17;;;20.20;;
3571;SDS011;7958;53.024;12.970;2022-11-14T14:59:57;43.10;;;20.60;;
3571;SDS011;7958;53.024;12.970;2022-11-14T15:02:23;37.23;;;18.90;;
3571;SDS011;7958;53.024;12.970;2022-11-14T15:04:52;40.43;;;21.10;;